createdAt,value
2018-09-21T00:01:26.047Z,18.08
2018-09-21T00:04:00.935Z,18.10
2018-09-21T00:06:31.945Z,18.07
2018-09-21T00:09:01.813Z,18.07
2018-09-21T00:11:32.149Z,18.03
2018-09-21T00:14:02.664Z,18.07
2018-09-21T00:16:32.735Z,18.00
2018-09-21T00:19:02.737Z,18.04
2018-09-21T00:21:32.949Z,18.14
2018-09-21T00:24:02.937Z,18.13
2018-09-21T00:26:33.139Z,18.11
2018-09-21T00:29:02.977Z,18.24
2018-09-21T00:31:33.196Z,18.24
2018-09-21T00:34:03.563Z,18.22
2018-09-21T00:36:33.835Z,18.22
2018-09-21T00:39:04.909Z,18.14
2018-09-21T00:41:35.072Z,18.08
2018-09-21T00:44:05.990Z,18.04
2018-09-21T00:46:36.466Z,18.17
2018-09-21T00:49:06.708Z,18.22
2018-09-21T00:51:38.475Z,18.16
2018-09-21T00:54:08.891Z,18.05
2018-09-21T00:56:39.590Z,18.01
2018-09-21T00:59:09.662Z,18.00
2018-09-21T01:01:41.540Z,17.95
2018-09-21T01:04:12.451Z,17.94
2018-09-21T01:06:44.306Z,17.92
2018-09-21T01:09:15.030Z,17.94
2018-09-21T01:11:46.075Z,17.96
2018-09-21T01:14:16.402Z,18.00
2018-09-21T01:16:46.686Z,17.99
2018-09-21T01:19:16.824Z,18.00
2018-09-21T01:21:46.975Z,18.01
2018-09-21T01:24:17.137Z,18.07
2018-09-21T01:26:47.241Z,18.08
2018-09-21T01:29:17.758Z,18.15
2018-09-21T01:31:47.947Z,18.13
2018-09-21T01:34:18.147Z,17.94
2018-09-21T01:36:48.084Z,17.94
2018-09-21T01:39:18.216Z,17.86
2018-09-21T01:41:48.615Z,17.84
2018-09-21T01:44:19.103Z,17.85
2018-09-21T01:46:49.179Z,17.80
2018-09-21T01:49:19.409Z,17.83
2018-09-21T01:51:49.573Z,17.84
2018-09-21T01:54:19.643Z,17.80
2018-09-21T01:56:49.912Z,17.74
2018-09-21T01:59:20.970Z,17.79
2018-09-21T02:01:51.444Z,17.79
2018-09-21T02:04:25.570Z,17.87
2018-09-21T02:06:55.836Z,18.03
2018-09-21T02:09:25.821Z,17.92
2018-09-21T02:11:55.904Z,18.03
2018-09-21T02:14:26.247Z,17.99
2018-09-21T02:16:56.957Z,18.00
2018-09-21T02:19:27.543Z,17.97
2018-09-21T02:21:57.931Z,18.00
2018-09-21T02:24:27.988Z,17.94
2018-09-21T02:26:58.052Z,17.96
2018-09-21T02:29:27.983Z,17.99
2018-09-21T02:31:58.091Z,17.95
2018-09-21T02:34:28.330Z,17.98
2018-09-21T02:36:58.629Z,17.92
2018-09-21T02:39:28.921Z,17.87
2018-09-21T02:41:58.847Z,17.86
2018-09-21T02:44:28.986Z,17.89
2018-09-21T02:46:59.077Z,17.85
2018-09-21T02:49:30.314Z,17.87
2018-09-21T02:52:00.591Z,17.94
2018-09-21T02:54:31.578Z,17.95
2018-09-21T02:57:02.704Z,17.92
2018-09-21T02:59:33.569Z,17.95
2018-09-21T03:02:04.546Z,17.87
2018-09-21T03:04:39.794Z,17.84
2018-09-21T03:07:11.731Z,17.85
2018-09-21T03:09:41.935Z,17.77
2018-09-21T03:12:12.181Z,17.72
2018-09-21T03:14:42.194Z,17.68
2018-09-21T03:17:14.109Z,17.70
2018-09-21T03:19:45.658Z,17.73
2018-09-21T03:22:16.028Z,17.71
2018-09-21T03:24:46.249Z,17.76
2018-09-21T03:27:16.863Z,17.77
2018-09-21T03:29:46.914Z,17.84
2018-09-21T03:32:18.799Z,17.92
2018-09-21T03:34:48.865Z,17.91
2018-09-21T03:37:19.107Z,17.93
2018-09-21T03:39:49.325Z,17.94
2018-09-21T03:42:19.909Z,17.93
2018-09-21T03:44:50.052Z,17.75
2018-09-21T03:47:20.252Z,17.89
2018-09-21T03:49:50.787Z,17.88
2018-09-21T03:52:20.815Z,17.92
2018-09-21T03:54:51.748Z,17.82
2018-09-21T03:57:22.928Z,17.83
2018-09-21T03:59:53.078Z,17.82
2018-09-21T04:02:23.874Z,17.85
2018-09-21T04:04:54.097Z,17.88
2018-09-21T04:07:24.118Z,17.99
2018-09-21T04:09:54.345Z,17.95
2018-09-21T04:12:24.395Z,17.98
2018-09-21T04:14:54.847Z,18.10
2018-09-21T04:17:25.030Z,18.22
2018-09-21T04:19:58.624Z,18.33
2018-09-21T04:22:29.741Z,18.38
2018-09-21T04:25:00.604Z,18.39
2018-09-21T04:27:30.988Z,18.48
2018-09-21T04:30:00.955Z,18.60
2018-09-21T04:32:31.070Z,18.67
2018-09-21T04:35:01.377Z,18.74
2018-09-21T04:37:31.520Z,18.74
2018-09-21T04:40:02.117Z,18.75
2018-09-21T04:42:32.736Z,18.72
2018-09-21T04:45:03.001Z,18.69
2018-09-21T04:47:34.165Z,18.85
2018-09-21T04:50:05.833Z,19.02
2018-09-21T04:52:36.060Z,19.19
2018-09-21T04:55:06.371Z,19.34
2018-09-21T04:57:36.934Z,19.45
2018-09-21T05:00:08.152Z,19.44
2018-09-21T05:02:39.970Z,19.46
2018-09-21T05:05:10.628Z,19.65
2018-09-21T05:07:42.407Z,20.22
2018-09-21T05:10:12.836Z,21.18
2018-09-21T05:12:42.992Z,22.22
2018-09-21T05:15:13.145Z,22.55
2018-09-21T05:17:44.612Z,22.66
2018-09-21T05:20:17.288Z,23.64
2018-09-21T05:22:47.349Z,25.14
2018-09-21T05:25:17.374Z,26.44
2018-09-21T05:27:47.608Z,27.15
2018-09-21T05:30:17.309Z,27.80
2018-09-21T05:32:47.518Z,28.28
2018-09-21T05:35:18.729Z,28.59
2018-09-21T05:37:49.786Z,27.86
2018-09-21T05:40:19.901Z,28.84
2018-09-21T05:42:50.730Z,28.86
2018-09-21T05:45:20.976Z,28.63
2018-09-21T05:47:52.500Z,29.16
2018-09-21T05:50:23.259Z,28.80
2018-09-21T05:52:54.022Z,30.11
2018-09-21T05:55:24.840Z,30.57
2018-09-21T05:57:55.012Z,30.61
2018-09-21T06:00:30.540Z,29.89
2018-09-21T06:03:03.394Z,30.51
2018-09-21T06:05:33.546Z,31.01
2018-09-21T06:08:05.519Z,29.77
2018-09-21T06:10:35.964Z,28.84
2018-09-21T06:13:06.411Z,29.73
2018-09-21T06:15:36.640Z,29.82
2018-09-21T06:18:10.381Z,29.50
2018-09-21T06:20:40.539Z,30.35
2018-09-21T06:23:10.711Z,29.65
2018-09-21T06:25:41.417Z,30.72
2018-09-21T06:28:11.444Z,31.84
2018-09-21T06:30:41.594Z,30.39
2018-09-21T06:33:11.838Z,28.86
2018-09-21T06:35:41.569Z,30.53
2018-09-21T06:38:11.298Z,31.52
2018-09-21T06:40:41.023Z,31.67
2018-09-21T06:43:10.721Z,30.71
2018-09-21T06:45:40.396Z,29.66
2018-09-21T06:48:10.181Z,29.48
2018-09-21T06:50:41.519Z,28.98
2018-09-21T06:53:11.518Z,28.78
2018-09-21T06:55:41.283Z,28.33
2018-09-21T06:58:11.089Z,27.73
2018-09-21T07:00:40.939Z,27.29
2018-09-21T07:03:11.229Z,26.91
2018-09-21T07:05:42.755Z,26.57
2018-09-21T07:08:13.867Z,26.20
2018-09-21T07:10:44.124Z,25.81
2018-09-21T07:13:14.527Z,25.72
2018-09-21T07:15:44.711Z,25.49
2018-09-21T07:18:16.332Z,24.57
2018-09-21T07:20:46.537Z,24.35
2018-09-21T07:23:16.858Z,24.28
2018-09-21T07:25:47.403Z,23.97
2018-09-21T07:28:17.162Z,23.82
2018-09-21T07:30:46.838Z,23.60
2018-09-21T07:33:17.898Z,23.46
2018-09-21T07:35:48.726Z,23.36
2018-09-21T07:38:19.228Z,23.43
2018-09-21T07:40:50.276Z,23.39
2018-09-21T07:43:20.461Z,23.26
2018-09-21T07:45:50.571Z,23.18
2018-09-21T07:48:21.425Z,23.25
2018-09-21T07:50:51.779Z,23.38
2018-09-21T07:53:23.450Z,23.30
2018-09-21T07:55:54.239Z,23.24
2018-09-21T07:58:24.494Z,23.22
2018-09-21T08:00:55.731Z,23.18
2018-09-21T08:03:27.563Z,23.31
2018-09-21T08:05:57.898Z,23.42
2018-09-21T08:08:28.037Z,23.48
2018-09-21T08:11:00.037Z,23.56
2018-09-21T08:13:30.399Z,23.56
2018-09-21T08:16:01.386Z,23.67
2018-09-21T08:18:33.763Z,23.65
2018-09-21T08:21:04.270Z,23.67
2018-09-21T08:23:35.090Z,23.77
2018-09-21T08:26:06.589Z,23.63
2018-09-21T08:28:36.737Z,23.71
2018-09-21T08:31:07.015Z,23.88
2018-09-21T08:33:37.943Z,24.01
2018-09-21T08:36:08.199Z,23.90
2018-09-21T08:38:38.042Z,24.09
2018-09-21T08:41:08.078Z,24.17
2018-09-21T08:43:37.770Z,24.27
2018-09-21T08:46:07.926Z,24.32
2018-09-21T08:48:37.645Z,24.08
2018-09-21T08:51:07.773Z,24.18
2018-09-21T08:53:37.958Z,24.24
2018-09-21T08:56:08.247Z,24.16
2018-09-21T08:58:38.415Z,24.15
2018-09-21T09:01:09.563Z,24.19
2018-09-21T09:03:39.715Z,24.24
2018-09-21T09:06:10.038Z,24.27
2018-09-21T09:08:41.110Z,24.24
2018-09-21T09:11:11.520Z,24.27
2018-09-21T09:13:41.248Z,24.39
2018-09-21T09:16:10.967Z,24.38
2018-09-21T09:18:40.713Z,24.33
2018-09-21T09:21:10.986Z,24.31
2018-09-21T09:23:42.186Z,24.24
2018-09-21T09:26:12.480Z,24.22
2018-09-21T09:28:43.078Z,24.23
2018-09-21T09:31:12.784Z,24.23
2018-09-21T09:33:42.551Z,24.34
2018-09-21T09:36:12.171Z,24.44
2018-09-21T09:38:41.835Z,24.37
2018-09-21T09:41:13.130Z,24.44
2018-09-21T09:43:43.880Z,24.60
2018-09-21T09:46:15.556Z,24.63
2018-09-21T09:48:46.989Z,24.62
2018-09-21T09:52:19.870Z,24.57
2018-09-21T09:54:50.137Z,24.62
2018-09-21T09:57:20.355Z,24.72
2018-09-21T09:59:50.955Z,24.72
2018-09-21T10:02:21.202Z,24.68
2018-09-21T10:04:51.802Z,24.73
2018-09-21T10:07:21.791Z,24.48
2018-09-21T10:09:51.966Z,24.37
2018-09-21T10:12:22.773Z,24.28
2018-09-21T10:14:54.579Z,24.28
2018-09-21T10:17:24.285Z,24.21
2018-09-21T10:19:54.685Z,24.16
2018-09-21T10:22:25.704Z,24.32
2018-09-21T10:24:56.057Z,24.30
2018-09-21T10:27:26.313Z,24.33
2018-09-21T10:29:57.233Z,24.39
2018-09-21T10:32:27.449Z,24.50
2018-09-21T10:34:59.281Z,24.58
2018-09-21T10:37:29.448Z,24.54
2018-09-21T10:40:00.033Z,24.41
2018-09-21T10:42:30.108Z,24.32
2018-09-21T10:45:00.533Z,24.35
2018-09-21T10:47:30.334Z,24.50
2018-09-21T10:50:00.787Z,24.62
2018-09-21T10:52:30.986Z,24.76
2018-09-21T10:55:01.779Z,24.73
2018-09-21T10:57:33.158Z,24.76
2018-09-21T11:00:03.552Z,24.70
2018-09-21T11:02:35.480Z,24.55
2018-09-21T11:05:07.146Z,24.47
2018-09-21T11:07:37.973Z,24.56
2018-09-21T11:10:12.383Z,24.67
2018-09-21T11:12:42.620Z,24.79
2018-09-21T11:15:12.744Z,24.80
2018-09-21T11:17:44.226Z,24.82
2018-09-21T11:20:14.377Z,24.81
2018-09-21T11:22:44.616Z,24.59
2018-09-21T11:25:15.784Z,24.42
2018-09-21T11:27:45.884Z,24.42
2018-09-21T11:30:17.126Z,24.37
2018-09-21T11:32:47.274Z,24.31
2018-09-21T11:35:17.399Z,24.33
2018-09-21T11:37:47.622Z,24.21
2018-09-21T11:40:17.782Z,24.08
2018-09-21T11:42:47.919Z,24.21
2018-09-21T11:45:18.533Z,24.19
2018-09-21T11:47:48.630Z,24.28
2018-09-21T11:50:19.352Z,24.07
2018-09-21T11:52:50.228Z,23.81
2018-09-21T11:55:20.445Z,23.58
2018-09-21T11:57:53.269Z,23.61
2018-09-21T12:00:23.491Z,23.60
2018-09-21T12:02:55.839Z,23.39
2018-09-21T12:05:25.992Z,23.39
2018-09-21T12:07:56.463Z,23.35
2018-09-21T12:10:26.911Z,23.49
2018-09-21T12:12:57.761Z,23.38
2018-09-21T12:15:28.058Z,23.27
2018-09-21T12:17:57.815Z,23.34
2018-09-21T12:20:28.219Z,23.24
2018-09-21T12:22:58.545Z,23.37
2018-09-21T12:25:29.605Z,23.20
2018-09-21T12:27:59.333Z,23.11
2018-09-21T12:30:29.624Z,23.16
2018-09-21T12:32:59.376Z,23.29
2018-09-21T12:35:29.370Z,23.29
2018-09-21T12:37:59.178Z,23.31
2018-09-21T12:40:28.875Z,23.38
2018-09-21T12:42:59.335Z,23.21
2018-09-21T12:45:29.037Z,23.03
2018-09-21T12:48:00.002Z,23.06
2018-09-21T12:50:30.195Z,23.04
2018-09-21T12:53:01.564Z,23.17
2018-09-21T12:55:32.528Z,23.36
2018-09-21T12:58:04.126Z,23.46
2018-09-21T13:00:39.419Z,23.24
2018-09-21T13:03:11.727Z,23.36
2018-09-21T13:05:41.966Z,23.55
2018-09-21T13:08:11.976Z,23.53
2018-09-21T13:10:41.921Z,23.47
2018-09-21T13:13:11.985Z,23.49
2018-09-21T13:15:43.093Z,23.43
2018-09-21T13:18:12.840Z,23.43
2018-09-21T13:20:42.952Z,23.56
2018-09-21T13:23:13.306Z,23.57
2018-09-21T13:25:44.431Z,23.48
2018-09-21T13:28:14.655Z,23.48
2018-09-21T13:30:44.686Z,23.43
2018-09-21T13:33:14.853Z,23.21
2018-09-21T13:35:47.022Z,23.13
2018-09-21T13:38:17.360Z,23.31
2018-09-21T13:40:47.089Z,23.41
2018-09-21T13:43:18.840Z,23.34
2018-09-21T13:45:49.248Z,23.50
2018-09-21T13:48:18.952Z,23.02
2018-09-21T13:50:48.633Z,23.47
2018-09-21T13:53:18.327Z,23.40
2018-09-21T13:55:49.084Z,23.24
2018-09-21T13:58:19.740Z,23.31
2018-09-21T14:00:50.117Z,23.40
2018-09-21T14:03:20.780Z,23.37
2018-09-21T14:05:50.672Z,23.31
2018-09-21T14:08:20.475Z,23.36
2018-09-21T14:10:50.179Z,23.12
2018-09-21T14:13:19.917Z,23.04
2018-09-21T14:15:50.282Z,23.06
2018-09-21T14:18:21.094Z,23.12
2018-09-21T14:20:50.793Z,22.97
2018-09-21T14:23:20.624Z,22.96
2018-09-21T14:25:50.794Z,22.93
2018-09-21T14:28:22.424Z,22.75
2018-09-21T14:30:52.219Z,22.61
2018-09-21T14:33:22.487Z,22.55
2018-09-21T14:35:52.401Z,22.55
2018-09-21T14:38:22.566Z,22.54
2018-09-21T14:40:56.947Z,22.52
2018-09-21T14:43:27.222Z,22.47
2018-09-21T14:45:57.549Z,22.51
2018-09-21T14:48:27.734Z,22.55
2018-09-21T14:50:58.396Z,22.51
2018-09-21T14:53:29.962Z,22.65
2018-09-21T14:56:01.961Z,22.45
2018-09-21T14:58:32.321Z,22.47
2018-09-21T15:01:04.192Z,22.44
2018-09-21T15:03:35.292Z,22.28
2018-09-21T15:06:05.348Z,22.25
2018-09-21T15:08:37.495Z,22.14
2018-09-21T15:11:07.319Z,22.09
2018-09-21T15:13:37.456Z,22.14
2018-09-21T15:16:07.459Z,22.12
2018-09-21T15:18:37.787Z,22.07
2018-09-21T15:21:09.013Z,22.20
2018-09-21T15:23:46.612Z,22.16
2018-09-21T15:26:17.001Z,22.16
2018-09-21T15:28:47.277Z,22.03
2018-09-21T15:31:17.501Z,21.91
2018-09-21T15:33:48.484Z,21.87
2018-09-21T15:36:18.627Z,21.89
2018-09-21T15:38:48.678Z,21.91
2018-09-21T15:41:19.466Z,21.94
2018-09-21T15:43:49.633Z,21.96
2018-09-21T15:46:19.746Z,21.85
2018-09-21T15:48:50.181Z,21.85
2018-09-21T15:51:21.518Z,21.71
2018-09-21T15:53:52.594Z,21.67
2018-09-21T15:56:22.440Z,21.59
2018-09-21T15:58:52.792Z,21.63
2018-09-21T16:01:23.717Z,21.54
2018-09-21T16:03:53.968Z,21.45
2018-09-21T16:06:24.352Z,21.32
2018-09-21T16:08:54.417Z,21.25
2018-09-21T16:11:24.450Z,21.28
2018-09-21T16:13:55.496Z,21.24
2018-09-21T16:16:25.809Z,21.14
2018-09-21T16:18:57.119Z,21.17
2018-09-21T16:21:27.596Z,21.26
2018-09-21T16:23:57.822Z,21.22
2018-09-21T16:26:28.172Z,21.13
2018-09-21T16:28:58.162Z,21.18
2018-09-21T16:31:28.967Z,21.06
2018-09-21T16:33:59.477Z,20.97
2018-09-21T16:36:29.677Z,20.99
2018-09-21T16:39:00.929Z,20.91
2018-09-21T16:41:31.093Z,20.93
2018-09-21T16:44:01.631Z,20.99
2018-09-21T16:46:32.155Z,20.91
2018-09-21T16:49:02.531Z,20.86
2018-09-21T16:51:33.187Z,20.79
2018-09-21T16:54:03.350Z,20.69
2018-09-21T16:56:34.903Z,20.67
2018-09-21T16:59:05.415Z,20.66
2018-09-21T17:01:36.402Z,20.57
2018-09-21T17:04:06.800Z,20.62
2018-09-21T17:06:37.083Z,20.58
2018-09-21T17:09:10.486Z,20.56
2018-09-21T17:11:40.660Z,20.58
2018-09-21T17:14:11.639Z,20.52
2018-09-21T17:16:41.925Z,20.48
2018-09-21T17:19:11.944Z,20.48
2018-09-21T17:21:42.393Z,20.40
2018-09-21T17:24:12.860Z,20.35
2018-09-21T17:26:45.012Z,20.32
2018-09-21T17:29:15.798Z,20.31
2018-09-21T17:31:46.160Z,20.23
2018-09-21T17:34:16.219Z,20.24
2018-09-21T17:36:46.626Z,20.16
2018-09-21T17:39:16.752Z,20.05
2018-09-21T17:41:47.731Z,20.05
2018-09-21T17:44:18.137Z,19.95
2018-09-21T17:46:48.323Z,19.90
2018-09-21T17:49:18.591Z,19.88
2018-09-21T17:51:50.708Z,20.03
2018-09-21T17:54:21.064Z,19.96
2018-09-21T17:56:51.841Z,19.91
2018-09-21T17:59:22.154Z,19.90
2018-09-21T18:01:53.060Z,19.90
2018-09-21T18:04:23.133Z,19.95
2018-09-21T18:06:55.032Z,19.90
2018-09-21T18:09:25.420Z,19.90
2018-09-21T18:11:55.545Z,19.89
2018-09-21T18:14:25.637Z,19.91
2018-09-21T18:16:55.842Z,19.98
2018-09-21T18:19:27.477Z,19.86
2018-09-21T18:21:57.579Z,19.83
2018-09-21T18:24:27.881Z,19.81
2018-09-21T18:26:58.204Z,19.80
2018-09-21T18:29:28.207Z,19.84
2018-09-21T18:31:58.425Z,19.78
2018-09-21T18:34:28.750Z,19.65
2018-09-21T18:36:59.100Z,19.69
2018-09-21T18:39:30.495Z,19.78
2018-09-21T18:42:00.700Z,19.67
2018-09-21T18:44:30.811Z,19.69
2018-09-21T18:47:01.510Z,19.63
2018-09-21T18:49:31.731Z,19.64
2018-09-21T18:52:04.721Z,19.56
2018-09-21T18:54:34.941Z,19.49
2018-09-21T18:57:06.290Z,19.50
2018-09-21T18:59:36.234Z,19.54
2018-09-21T19:02:06.866Z,19.53
2018-09-21T19:04:37.143Z,19.58
2018-09-21T19:07:12.495Z,19.58
2018-09-21T19:09:42.586Z,19.49
2018-09-21T19:12:12.870Z,19.56
2018-09-21T19:14:43.182Z,19.62
2018-09-21T19:17:13.318Z,19.63
2018-09-21T19:19:43.493Z,19.55
2018-09-21T19:22:13.999Z,19.53
2018-09-21T19:24:44.371Z,19.48
2018-09-21T19:27:14.545Z,19.48
2018-09-21T19:29:44.636Z,19.43
2018-09-21T19:32:14.848Z,19.38
2018-09-21T19:34:44.858Z,19.39
2018-09-21T19:37:15.270Z,19.38
2018-09-21T19:39:45.518Z,19.30
2018-09-21T19:42:15.670Z,19.32
2018-09-21T19:44:46.117Z,19.33
2018-09-21T19:47:16.713Z,19.26
2018-09-21T19:49:46.882Z,19.21
2018-09-21T19:52:19.032Z,19.17
2018-09-21T19:54:51.535Z,19.12
2018-09-21T19:57:22.489Z,19.13
2018-09-21T19:59:52.363Z,19.15
2018-09-21T20:02:22.179Z,19.08
2018-09-21T20:04:53.388Z,19.02
2018-09-21T20:07:24.218Z,18.96
2018-09-21T20:09:54.332Z,18.96
2018-09-21T20:12:24.357Z,18.93
2018-09-21T20:14:54.682Z,18.92
2018-09-21T20:17:24.790Z,18.96
2018-09-21T20:19:55.349Z,18.88
2018-09-21T20:22:25.734Z,18.91
2018-09-21T20:24:56.055Z,18.87
2018-09-21T20:27:26.098Z,18.83
2018-09-21T20:30:01.717Z,18.80
2018-09-21T20:32:37.616Z,18.78
2018-09-21T20:35:07.617Z,18.76
2018-09-21T20:37:37.866Z,18.69
2018-09-21T20:40:08.389Z,18.68
2018-09-21T20:42:38.894Z,18.69
2018-09-21T20:45:09.144Z,18.74
2018-09-21T20:47:40.480Z,18.74
2018-09-21T20:50:11.584Z,18.72
2018-09-21T20:52:41.887Z,18.74
2018-09-21T20:55:12.206Z,18.75
2018-09-21T20:57:43.663Z,18.75
2018-09-21T21:00:13.903Z,18.81
2018-09-21T21:02:45.424Z,18.80
2018-09-21T21:05:16.615Z,18.73
2018-09-21T21:07:47.572Z,18.64
2018-09-21T21:10:17.613Z,18.63
2018-09-21T21:12:47.576Z,18.63
2018-09-21T21:15:17.996Z,18.62
2018-09-21T21:17:48.341Z,18.59
2018-09-21T21:20:18.827Z,18.59
2018-09-21T21:22:53.929Z,18.44
2018-09-21T21:25:24.737Z,18.59
2018-09-21T21:27:55.768Z,18.62
2018-09-21T21:30:27.288Z,18.68
2018-09-21T21:32:57.575Z,18.63
2018-09-21T21:35:27.571Z,18.65
2018-09-21T21:37:57.862Z,18.58
2018-09-21T21:40:28.088Z,18.55
2018-09-21T21:42:58.483Z,18.54
2018-09-21T21:45:28.965Z,18.46
2018-09-21T21:47:59.784Z,18.47
2018-09-21T21:50:29.781Z,18.48
2018-09-21T21:53:00.620Z,18.47
2018-09-21T21:55:30.871Z,18.57
2018-09-21T21:58:00.961Z,18.58
2018-09-21T22:00:36.104Z,18.47
2018-09-21T22:03:07.286Z,18.42
2018-09-21T22:05:37.227Z,18.32
2018-09-21T22:08:07.598Z,18.30
2018-09-21T22:10:38.026Z,18.28
2018-09-21T22:13:13.081Z,18.26
2018-09-21T22:15:43.207Z,18.27
2018-09-21T22:18:13.480Z,18.32
2018-09-21T22:20:43.728Z,18.32
2018-09-21T22:23:13.748Z,18.31
2018-09-21T22:25:43.885Z,18.23
2018-09-21T22:28:17.429Z,18.23
2018-09-21T22:30:47.764Z,18.30
2018-09-21T22:33:18.063Z,18.29
2018-09-21T22:35:48.164Z,18.32
2018-09-21T22:38:18.356Z,18.31
2018-09-21T22:40:48.178Z,18.29
2018-09-21T22:43:18.426Z,18.37
2018-09-21T22:45:48.779Z,18.37
2018-09-21T22:48:18.854Z,18.44
2018-09-21T22:50:49.284Z,18.40
2018-09-21T22:53:19.518Z,18.45
2018-09-21T22:55:49.625Z,18.38
2018-09-21T22:58:20.154Z,18.35
2018-09-21T23:00:50.476Z,18.28
2018-09-21T23:03:20.784Z,18.34
2018-09-21T23:05:51.930Z,18.33
2018-09-21T23:08:22.006Z,18.35
2018-09-21T23:10:52.644Z,18.38
2018-09-21T23:13:23.131Z,18.31
2018-09-21T23:15:53.349Z,18.34
2018-09-21T23:18:23.476Z,18.32
2018-09-21T23:20:53.702Z,18.35
2018-09-21T23:30:14.887Z,18.19
2018-09-21T23:32:46.062Z,18.20
2018-09-21T23:35:16.657Z,18.25
2018-09-21T23:37:46.698Z,18.22
2018-09-21T23:40:17.091Z,18.26
2018-09-21T23:42:47.297Z,18.24
2018-09-21T23:45:17.678Z,18.30
2018-09-21T23:47:47.917Z,18.35
2018-09-21T23:50:19.529Z,18.37
2018-09-21T23:52:49.896Z,18.34
2018-09-21T23:55:19.864Z,18.34
2018-09-21T23:57:49.958Z,18.34
